createdAt,value
2022-09-16T00:00:13.475Z,4.50
2022-09-16T00:02:40.000Z,4.38
2022-09-16T00:05:02.819Z,4.40
2022-09-16T00:07:25.427Z,4.22
2022-09-16T00:09:48.136Z,4.47
2022-09-16T00:12:10.920Z,4.47
2022-09-16T00:14:33.599Z,4.00
2022-09-16T00:16:56.257Z,4.20
2022-09-16T00:19:18.913Z,4.20
2022-09-16T00:21:41.695Z,4.15
2022-09-16T00:24:05.476Z,4.25
2022-09-16T00:26:28.026Z,4.13
2022-09-16T00:28:50.980Z,4.45
2022-09-16T00:31:13.853Z,4.22
2022-09-16T00:33:36.458Z,4.80
2022-09-16T00:36:11.065Z,4.68
2022-09-16T00:38:33.770Z,4.50
2022-09-16T00:40:56.290Z,4.47
2022-09-16T00:43:19.964Z,4.55
2022-09-16T00:45:45.717Z,4.60
2022-09-16T00:48:12.988Z,4.45
2022-09-16T00:50:49.412Z,4.03
2022-09-16T00:53:25.290Z,3.42
2022-09-16T00:55:49.665Z,3.83
2022-09-16T00:58:50.080Z,4.13
2022-09-16T01:01:12.834Z,3.80
2022-09-16T01:03:43.150Z,3.67
2022-09-16T01:06:06.729Z,4.10
2022-09-16T01:08:29.306Z,3.80
2022-09-16T01:10:52.528Z,3.80
2022-09-16T01:13:15.899Z,3.45
2022-09-16T01:16:15.233Z,3.80
2022-09-16T01:18:52.957Z,3.83
2022-09-16T01:21:34.199Z,3.88
2022-09-16T01:24:20.488Z,3.50
2022-09-16T01:26:58.851Z,3.80
2022-09-16T01:29:46.896Z,3.95
2022-09-16T01:33:05.151Z,4.03
2022-09-16T01:35:45.005Z,4.00
2022-09-16T01:38:38.519Z,3.92
2022-09-16T01:41:09.657Z,3.90
2022-09-16T01:43:54.679Z,4.20
2022-09-16T01:46:34.427Z,4.10
2022-09-16T01:49:08.615Z,4.50
2022-09-16T01:51:57.387Z,4.20
2022-09-16T01:54:40.548Z,4.13
2022-09-16T01:57:13.822Z,4.25
2022-09-16T02:00:03.633Z,4.38
2022-09-16T02:02:37.689Z,4.10
2022-09-16T02:05:03.559Z,3.80
2022-09-16T02:07:34.130Z,3.83
2022-09-16T02:10:21.544Z,4.70
2022-09-16T02:12:46.344Z,3.60
2022-09-16T02:15:12.549Z,3.78
2022-09-16T02:17:40.850Z,4.10
2022-09-16T02:20:07.872Z,4.10
2022-09-16T02:22:40.256Z,4.20
2022-09-16T02:25:05.026Z,3.65
2022-09-16T02:27:29.676Z,3.65
2022-09-16T02:30:00.874Z,4.25
2022-09-16T02:32:27.642Z,4.28
2022-09-16T02:34:51.823Z,4.07
2022-09-16T02:37:24.928Z,4.07
2022-09-16T02:39:50.507Z,3.78
2022-09-16T02:42:13.049Z,4.38
2022-09-16T02:44:35.624Z,4.25
2022-09-16T02:47:12.805Z,4.28
2022-09-16T02:49:50.257Z,4.70
2022-09-16T02:52:39.141Z,4.78
2022-09-16T02:55:12.989Z,5.05
2022-09-16T02:57:36.388Z,4.53
2022-09-16T02:59:59.068Z,4.95
2022-09-16T03:02:21.857Z,4.50
2022-09-16T03:04:45.169Z,5.40
2022-09-16T03:07:11.207Z,5.75
2022-09-16T03:09:38.637Z,5.93
2022-09-16T03:12:24.027Z,5.90
2022-09-16T03:15:08.190Z,5.70
2022-09-16T03:18:03.057Z,5.57
2022-09-16T03:20:34.741Z,5.15
2022-09-16T03:23:00.282Z,5.20
2022-09-16T03:26:06.801Z,5.90
2022-09-16T03:29:12.857Z,5.60
2022-09-16T03:32:11.078Z,5.30
2022-09-16T03:34:40.102Z,5.80
2022-09-16T03:37:08.144Z,6.00
2022-09-16T03:39:33.390Z,6.10
2022-09-16T03:42:01.947Z,6.28
2022-09-16T03:44:32.534Z,5.85
2022-09-16T03:46:55.144Z,6.05
2022-09-16T03:49:17.673Z,6.10
2022-09-16T03:51:40.157Z,5.82
2022-09-16T03:54:02.689Z,6.43
2022-09-16T03:56:25.548Z,6.13
2022-09-16T03:58:48.389Z,6.40
2022-09-16T04:01:11.062Z,6.53
2022-09-16T04:03:33.948Z,6.38
2022-09-16T04:05:57.159Z,6.80
2022-09-16T04:08:21.053Z,6.90
2022-09-16T04:11:00.989Z,6.60
2022-09-16T04:13:24.257Z,7.25
2022-09-16T04:15:46.819Z,6.70
2022-09-16T04:18:09.580Z,6.95
2022-09-16T04:20:33.555Z,6.78
2022-09-16T04:22:56.348Z,7.07
2022-09-16T04:25:18.834Z,7.55
2022-09-16T04:27:41.548Z,7.50
2022-09-16T04:30:04.478Z,7.50
2022-09-16T04:32:27.337Z,7.80
2022-09-16T04:34:49.867Z,7.68
2022-09-16T04:37:12.323Z,7.50
2022-09-16T04:39:35.834Z,7.38
2022-09-16T04:41:59.675Z,7.40
2022-09-16T04:44:22.298Z,7.57
2022-09-16T04:46:44.829Z,7.80
2022-09-16T04:49:07.603Z,7.55
2022-09-16T04:51:32.220Z,7.68
2022-09-16T04:53:56.479Z,7.43
2022-09-16T04:56:22.081Z,7.25
2022-09-16T04:58:47.220Z,7.72
2022-09-16T05:01:15.087Z,7.88
2022-09-16T05:03:37.712Z,7.95
2022-09-16T05:06:12.029Z,7.78
2022-09-16T05:08:35.421Z,7.13
2022-09-16T05:11:03.271Z,7.05
2022-09-16T05:13:25.743Z,7.85
2022-09-16T05:15:51.094Z,8.25
2022-09-16T05:18:14.042Z,8.38
2022-09-16T05:20:37.677Z,8.00
2022-09-16T05:23:00.293Z,7.88
2022-09-16T05:25:22.856Z,7.35
2022-09-16T05:27:45.632Z,7.97
2022-09-16T05:30:10.816Z,7.63
2022-09-16T05:32:33.368Z,7.97
2022-09-16T05:34:57.076Z,8.07
2022-09-16T05:37:19.977Z,7.50
2022-09-16T05:39:43.282Z,8.07
2022-09-16T05:42:06.155Z,8.13
2022-09-16T05:44:29.775Z,7.78
2022-09-16T05:46:52.999Z,7.82
2022-09-16T05:49:20.782Z,7.60
2022-09-16T05:51:43.914Z,7.63
2022-09-16T05:54:07.022Z,7.70
2022-09-16T05:56:31.299Z,7.45
2022-09-16T05:58:56.857Z,7.60
2022-09-16T06:01:31.395Z,7.35
2022-09-16T06:03:55.235Z,6.85
2022-09-16T06:06:31.770Z,7.57
2022-09-16T06:09:04.501Z,6.82
2022-09-16T06:11:28.645Z,7.13
2022-09-16T06:14:00.118Z,7.05
2022-09-16T06:16:25.869Z,6.95
2022-09-16T06:18:48.903Z,7.60
2022-09-16T06:21:11.964Z,7.28
2022-09-16T06:23:35.850Z,7.65
2022-09-16T06:26:03.722Z,7.00
2022-09-16T06:28:26.450Z,7.18
2022-09-16T06:30:49.136Z,6.45
2022-09-16T06:33:12.864Z,7.28
2022-09-16T06:35:36.025Z,7.15
2022-09-16T06:37:59.407Z,9.23
2022-09-16T06:40:22.137Z,7.00
2022-09-16T06:42:44.885Z,7.00
2022-09-16T06:45:08.206Z,7.20
2022-09-16T06:47:34.500Z,7.22
2022-09-16T06:49:57.514Z,7.10
2022-09-16T06:52:20.218Z,7.30
2022-09-16T06:54:42.959Z,7.60
2022-09-16T06:57:12.389Z,7.38
2022-09-16T06:59:35.986Z,7.55
2022-09-16T07:01:58.767Z,8.98
2022-09-16T07:04:21.356Z,7.90
2022-09-16T07:07:08.066Z,7.50
2022-09-16T07:09:28.915Z,7.57
2022-09-16T07:11:51.761Z,6.70
2022-09-16T07:14:14.419Z,7.32
2022-09-16T07:16:37.122Z,6.97
2022-09-16T07:19:01.335Z,7.03
2022-09-16T07:21:29.934Z,7.07
2022-09-16T07:23:55.399Z,6.80
2022-09-16T07:26:20.570Z,7.28
2022-09-16T07:28:46.281Z,6.85
2022-09-16T07:31:12.059Z,6.93
2022-09-16T07:33:39.806Z,10.55
2022-09-16T07:36:03.327Z,6.53
2022-09-16T07:38:26.839Z,8.68
2022-09-16T07:44:00.305Z,6.30
2022-09-16T07:46:31.294Z,6.15
2022-09-16T07:48:54.789Z,6.30
2022-09-16T07:51:22.416Z,6.20
2022-09-16T07:53:46.298Z,5.82
2022-09-16T07:56:14.982Z,5.25
2022-09-16T07:58:38.599Z,5.90
2022-09-16T08:01:04.832Z,5.82
2022-09-16T08:03:27.885Z,5.57
2022-09-16T08:05:50.598Z,5.68
2022-09-16T08:08:13.314Z,5.25
2022-09-16T08:10:37.296Z,5.50
2022-09-16T08:13:00.104Z,5.55
2022-09-16T08:15:23.045Z,5.13
2022-09-16T08:17:45.692Z,4.93
2022-09-16T08:20:08.847Z,5.28
2022-09-16T08:22:32.101Z,5.30
2022-09-16T08:24:54.691Z,5.10
2022-09-16T08:27:17.323Z,5.28
2022-09-16T08:29:39.957Z,5.50
2022-09-16T08:32:02.761Z,7.28
2022-09-16T08:34:25.273Z,5.10
2022-09-16T08:36:47.825Z,5.10
2022-09-16T08:39:11.984Z,5.68
2022-09-16T08:42:09.239Z,5.38
2022-09-16T08:44:41.212Z,5.10
2022-09-16T08:47:06.390Z,5.28
2022-09-16T08:49:42.489Z,5.13
2022-09-16T08:52:32.078Z,5.25
2022-09-16T08:55:03.225Z,5.00
2022-09-16T08:57:29.458Z,7.50
2022-09-16T08:59:56.681Z,8.45
2022-09-16T09:02:44.610Z,5.10
2022-09-16T09:05:16.723Z,5.15
2022-09-16T09:08:06.588Z,6.10
2022-09-16T09:10:54.146Z,4.97
2022-09-16T09:13:49.396Z,4.93
2022-09-16T09:16:44.734Z,4.75
2022-09-16T09:19:22.484Z,4.40
2022-09-16T09:22:02.472Z,5.22
2022-09-16T09:24:56.595Z,5.03
2022-09-16T09:27:36.557Z,5.55
2022-09-16T09:30:11.373Z,5.15
2022-09-16T09:33:44.890Z,4.68
2022-09-16T09:36:32.122Z,4.50
2022-09-16T09:38:57.480Z,4.80
2022-09-16T09:41:46.771Z,5.00
2022-09-16T09:44:37.244Z,4.40
2022-09-16T09:47:06.170Z,4.75
2022-09-16T09:49:34.746Z,5.30
2022-09-16T09:52:08.181Z,5.75
2022-09-16T09:54:41.793Z,5.30
2022-09-16T09:57:52.119Z,5.90
2022-09-16T10:00:21.654Z,5.60
2022-09-16T10:02:49.793Z,5.80
2022-09-16T10:05:24.637Z,5.35
2022-09-16T10:07:48.383Z,5.53
2022-09-16T10:10:17.839Z,6.15
2022-09-16T10:12:40.574Z,5.55
2022-09-16T10:15:03.518Z,5.25
2022-09-16T10:17:29.525Z,5.30
2022-09-16T10:20:00.080Z,5.10
2022-09-16T10:22:31.390Z,4.88
2022-09-16T10:24:59.369Z,6.88
2022-09-16T10:27:36.072Z,6.18
2022-09-16T10:30:19.928Z,5.50
2022-09-16T10:32:58.478Z,5.80
2022-09-16T10:35:29.413Z,6.00
2022-09-16T10:37:55.472Z,6.00
2022-09-16T10:40:19.639Z,6.30
2022-09-16T10:42:49.709Z,6.05
2022-09-16T10:45:35.218Z,5.50
2022-09-16T10:48:04.822Z,5.57
2022-09-16T10:50:29.774Z,5.90
2022-09-16T10:52:53.438Z,5.88
2022-09-16T10:55:24.761Z,5.53
2022-09-16T10:57:47.938Z,5.45
2022-09-16T11:00:19.274Z,5.63
2022-09-16T11:02:53.132Z,5.20
2022-09-16T11:05:54.335Z,4.88
2022-09-16T11:08:39.610Z,4.57
2022-09-16T11:11:14.557Z,4.40
2022-09-16T11:13:49.218Z,5.18
2022-09-16T11:17:06.143Z,3.97
2022-09-16T11:19:48.149Z,4.10
2022-09-16T11:22:31.205Z,4.57
2022-09-16T11:25:31.840Z,4.38
2022-09-16T11:28:03.265Z,4.00
2022-09-16T11:30:28.299Z,4.20
2022-09-16T11:33:06.258Z,4.30
2022-09-16T11:35:35.262Z,3.60
2022-09-16T11:38:25.716Z,3.90
2022-09-16T11:41:01.153Z,4.00
2022-09-16T11:43:29.468Z,3.50
2022-09-16T11:46:29.925Z,3.38
2022-09-16T11:49:17.313Z,3.10
2022-09-16T11:52:18.603Z,3.22
2022-09-16T11:54:59.980Z,4.50
2022-09-16T11:57:30.009Z,3.53
2022-09-16T11:59:59.531Z,3.10
2022-09-16T12:02:46.604Z,2.90
2022-09-16T12:05:35.163Z,3.30
2022-09-16T12:08:36.347Z,3.03
2022-09-16T12:11:38.971Z,3.15
2022-09-16T12:14:23.421Z,3.05
2022-09-16T12:17:00.207Z,2.90
2022-09-16T12:19:35.394Z,3.05
2022-09-16T12:22:16.284Z,2.60
2022-09-16T12:24:48.292Z,3.00
2022-09-16T12:27:35.660Z,3.10
2022-09-16T12:30:05.462Z,2.90
2022-09-16T12:32:28.057Z,2.83
2022-09-16T12:34:58.293Z,2.53
2022-09-16T12:37:29.682Z,2.92
2022-09-16T12:40:57.013Z,2.75
2022-09-16T12:43:38.486Z,2.83
2022-09-16T12:46:28.281Z,7.43
2022-09-16T12:48:56.719Z,2.95
2022-09-16T12:51:39.013Z,2.90
2022-09-16T12:54:26.635Z,2.65
2022-09-16T12:56:58.412Z,2.78
2022-09-16T13:00:02.473Z,2.60
2022-09-16T13:02:35.855Z,2.78
2022-09-16T13:05:04.427Z,3.22
2022-09-16T13:07:35.618Z,2.95
2022-09-16T13:10:46.851Z,2.63
2022-09-16T13:13:20.279Z,2.38
2022-09-16T13:15:45.214Z,2.30
2022-09-16T13:18:16.838Z,2.33
2022-09-16T13:20:51.986Z,2.60
2022-09-16T13:23:21.026Z,2.30
2022-09-16T13:25:59.937Z,2.37
2022-09-16T13:28:40.909Z,2.20
2022-09-16T13:31:16.549Z,2.30
2022-09-16T13:33:41.378Z,2.15
2022-09-16T13:36:13.339Z,1.95
2022-09-16T13:38:44.989Z,2.20
2022-09-16T13:41:12.231Z,2.17
2022-09-16T13:43:51.544Z,2.30
2022-09-16T13:46:28.782Z,2.08
2022-09-16T13:49:34.890Z,2.15
2022-09-16T13:51:59.034Z,2.50
2022-09-16T13:54:28.871Z,2.33
2022-09-16T13:57:28.208Z,2.40
2022-09-16T13:59:59.851Z,2.30
2022-09-16T14:02:44.430Z,2.10
2022-09-16T14:05:44.893Z,1.85
2022-09-16T14:08:32.072Z,1.70
2022-09-16T14:11:16.225Z,1.60
2022-09-16T14:13:43.888Z,1.80
2022-09-16T14:16:15.853Z,1.80
2022-09-16T14:18:43.149Z,1.75
2022-09-16T14:21:17.033Z,1.73
2022-09-16T14:23:39.647Z,1.70
2022-09-16T14:26:17.807Z,1.70
2022-09-16T14:28:41.013Z,1.60
2022-09-16T14:31:08.776Z,1.63
2022-09-16T14:33:56.340Z,1.60
2022-09-16T14:36:31.377Z,1.70
2022-09-16T14:38:59.053Z,1.60
2022-09-16T14:41:30.257Z,2.50
2022-09-16T14:43:55.587Z,1.88
2022-09-16T14:46:18.550Z,1.85
2022-09-16T14:48:42.740Z,1.60
2022-09-16T14:51:19.770Z,1.35
2022-09-16T14:53:55.464Z,1.60
2022-09-16T14:56:25.502Z,1.60
2022-09-16T14:58:49.306Z,1.55
2022-09-16T15:01:19.447Z,1.50
2022-09-16T15:03:53.296Z,1.40
2022-09-16T15:06:20.208Z,1.35
2022-09-16T15:09:03.720Z,1.40
2022-09-16T15:11:47.137Z,1.42
2022-09-16T15:14:11.211Z,1.33
2022-09-16T15:16:48.017Z,1.25
2022-09-16T15:19:21.409Z,1.20
2022-09-16T15:21:44.811Z,1.23
2022-09-16T15:24:18.181Z,1.30
2022-09-16T15:26:44.625Z,1.30
2022-09-16T15:29:19.102Z,1.00
2022-09-16T15:31:44.593Z,0.80
2022-09-16T15:34:19.063Z,0.95
2022-09-16T15:36:42.467Z,0.88
2022-09-16T15:39:06.304Z,1.02
2022-09-16T15:41:30.840Z,1.17
2022-09-16T15:43:53.608Z,1.30
2022-09-16T15:46:21.955Z,1.23
2022-09-16T15:48:48.737Z,1.20
2022-09-16T15:51:28.360Z,1.15
2022-09-16T15:53:54.277Z,1.33
2022-09-16T15:56:31.472Z,1.15
2022-09-16T15:59:05.399Z,1.50
2022-09-16T16:01:34.115Z,1.40
2022-09-16T16:03:59.131Z,1.10
2022-09-16T16:06:47.784Z,1.40
2022-09-16T16:09:30.547Z,1.40
2022-09-16T16:11:57.315Z,1.65
2022-09-16T16:14:20.408Z,1.48
2022-09-16T16:17:08.593Z,1.38
2022-09-16T16:19:26.382Z,1.33
2022-09-16T16:21:49.137Z,1.58
2022-09-16T16:24:12.697Z,1.42
2022-09-16T16:26:35.901Z,1.50
2022-09-16T16:29:19.321Z,3.92
2022-09-16T16:32:09.320Z,1.70
2022-09-16T16:34:37.169Z,2.08
2022-09-16T16:37:00.477Z,1.40
2022-09-16T16:39:24.468Z,1.50
2022-09-16T16:41:47.008Z,1.95
2022-09-16T16:44:09.526Z,1.60
2022-09-16T16:46:32.116Z,2.13
2022-09-16T16:48:54.898Z,2.05
2022-09-16T16:51:17.429Z,1.80
2022-09-16T16:53:40.013Z,1.85
2022-09-16T16:56:10.268Z,1.70
2022-09-16T16:58:43.048Z,2.10
2022-09-16T17:01:16.337Z,1.90
2022-09-16T17:03:40.001Z,1.70
2022-09-16T17:06:02.520Z,2.22
2022-09-16T17:08:25.022Z,1.60
2022-09-16T17:10:47.986Z,2.20
2022-09-16T17:13:10.711Z,1.83
2022-09-16T17:15:33.279Z,1.30
2022-09-16T17:17:55.855Z,1.70
2022-09-16T17:20:19.003Z,1.40
2022-09-16T17:22:41.546Z,1.73
2022-09-16T17:25:04.356Z,1.50
2022-09-16T17:27:27.909Z,1.55
2022-09-16T17:29:50.398Z,1.58
2022-09-16T17:32:13.133Z,1.60
2022-09-16T17:34:35.705Z,1.60
2022-09-16T17:36:58.547Z,1.65
2022-09-16T17:39:22.113Z,1.70
2022-09-16T17:41:45.937Z,1.80
2022-09-16T17:44:09.087Z,1.90
2022-09-16T17:46:31.846Z,2.00
2022-09-16T17:49:00.263Z,1.83
2022-09-16T17:51:22.950Z,2.10
2022-09-16T17:53:46.019Z,1.83
2022-09-16T17:56:16.117Z,1.90
2022-09-16T17:58:41.000Z,1.80
2022-09-16T18:01:14.664Z,1.90
2022-09-16T18:03:38.740Z,2.20
2022-09-16T18:06:28.842Z,2.03
2022-09-16T18:08:52.558Z,1.75
2022-09-16T18:11:16.178Z,1.83
2022-09-16T18:13:40.034Z,1.85
2022-09-16T18:16:08.843Z,2.00
2022-09-16T18:18:31.917Z,1.70
2022-09-16T18:20:56.048Z,1.60
2022-09-16T18:23:18.638Z,1.70
2022-09-16T18:25:41.082Z,1.55
2022-09-16T18:28:03.690Z,1.83
2022-09-16T18:30:26.241Z,1.80
2022-09-16T18:32:48.825Z,1.80
2022-09-16T18:35:12.657Z,1.88
2022-09-16T18:37:35.233Z,1.80
2022-09-16T18:39:58.122Z,1.70
2022-09-16T18:42:20.750Z,1.65
2022-09-16T18:44:43.351Z,2.00
2022-09-16T18:47:05.922Z,1.83
2022-09-16T18:49:30.211Z,1.60
2022-09-16T18:51:53.562Z,1.50
2022-09-16T18:54:24.962Z,1.70
2022-09-16T18:56:47.746Z,1.50
2022-09-16T18:59:23.383Z,1.60
2022-09-16T19:01:50.687Z,1.70
2022-09-16T19:04:13.505Z,1.73
2022-09-16T19:06:41.480Z,1.80
2022-09-16T19:09:06.514Z,1.65
2022-09-16T19:11:29.255Z,1.67
2022-09-16T19:13:52.144Z,1.67
2022-09-16T19:16:15.021Z,1.50
2022-09-16T19:18:38.636Z,1.52
2022-09-16T19:21:01.507Z,1.50
2022-09-16T19:23:24.862Z,1.30
2022-09-16T19:25:47.604Z,1.40
2022-09-16T19:28:10.296Z,1.33
2022-09-16T19:30:33.797Z,1.60
2022-09-16T19:32:56.804Z,1.52
2022-09-16T19:35:19.798Z,1.40
2022-09-16T19:37:42.279Z,1.40
2022-09-16T19:40:05.287Z,1.50
2022-09-16T19:42:28.355Z,1.42
2022-09-16T19:44:51.001Z,1.30
2022-09-16T19:47:13.479Z,1.50
2022-09-16T19:49:36.381Z,1.70
2022-09-16T19:51:58.929Z,1.60
2022-09-16T19:54:24.130Z,1.55
2022-09-16T19:56:50.491Z,1.70
2022-09-16T19:59:13.261Z,1.70
2022-09-16T20:01:37.184Z,1.67
2022-09-16T20:04:00.809Z,1.60
2022-09-16T20:06:43.498Z,1.50
2022-09-16T20:09:11.464Z,1.50
2022-09-16T20:11:36.429Z,1.70
2022-09-16T20:14:01.840Z,1.70
2022-09-16T20:16:30.873Z,1.63
2022-09-16T20:18:53.955Z,1.60
2022-09-16T20:21:20.208Z,1.55
2022-09-16T20:23:45.053Z,1.60
2022-09-16T20:26:09.183Z,1.67
2022-09-16T20:28:33.682Z,1.50
2022-09-16T20:30:56.309Z,1.75
2022-09-16T20:33:18.843Z,1.80
2022-09-16T20:35:41.372Z,1.80
2022-09-16T20:38:03.968Z,2.10
2022-09-16T20:40:26.708Z,1.83
2022-09-16T20:42:49.364Z,2.20
2022-09-16T20:45:11.833Z,2.20
2022-09-16T20:47:34.348Z,2.30
2022-09-16T20:49:57.162Z,2.08
2022-09-16T20:52:19.703Z,2.60
2022-09-16T20:54:42.340Z,2.20
2022-09-16T20:57:05.205Z,2.20
2022-09-16T20:59:27.982Z,2.40
2022-09-16T21:01:50.647Z,2.50
2022-09-16T21:04:15.967Z,2.50
2022-09-16T21:06:38.909Z,2.33
2022-09-16T21:09:05.304Z,2.10
2022-09-16T21:11:29.999Z,2.15
2022-09-16T21:13:55.864Z,2.25
2022-09-16T21:16:18.835Z,2.25
2022-09-16T21:18:42.529Z,2.35
2022-09-16T21:21:07.831Z,2.30
2022-09-16T21:23:31.771Z,2.20
2022-09-16T21:25:55.242Z,2.50
2022-09-16T21:28:17.871Z,2.80
2022-09-16T21:30:40.960Z,2.78
2022-09-16T21:33:03.635Z,3.00
2022-09-16T21:35:27.362Z,3.05
2022-09-16T21:37:49.847Z,3.00
2022-09-16T21:40:12.842Z,3.42
2022-09-16T21:42:35.552Z,3.00
2022-09-16T21:44:59.900Z,3.38
2022-09-16T21:47:22.324Z,3.50
2022-09-16T21:49:50.159Z,3.58
2022-09-16T21:52:12.743Z,3.75
2022-09-16T21:54:35.349Z,3.67
2022-09-16T21:56:57.998Z,4.07
2022-09-16T21:59:20.924Z,4.07
2022-09-16T22:01:43.817Z,4.30
2022-09-16T22:04:11.737Z,4.18
2022-09-16T22:06:34.347Z,3.80
2022-09-16T22:09:01.063Z,4.30
2022-09-16T22:11:26.057Z,4.03
2022-09-16T22:13:49.516Z,4.13
2022-09-16T22:16:18.574Z,4.38
2022-09-16T22:18:41.484Z,4.82
2022-09-16T22:21:14.958Z,4.63
2022-09-16T22:23:39.530Z,4.90
2022-09-16T22:26:06.702Z,4.70
2022-09-16T22:28:29.136Z,4.43
2022-09-16T22:30:51.654Z,4.63
2022-09-16T22:33:14.233Z,4.80
2022-09-16T22:35:36.760Z,4.40
2022-09-16T22:37:59.363Z,4.75
2022-09-16T22:40:22.257Z,4.55
2022-09-16T22:42:44.893Z,4.18
2022-09-16T22:45:08.084Z,4.57
2022-09-16T22:47:30.760Z,4.30
2022-09-16T22:49:54.438Z,4.38
2022-09-16T22:52:17.053Z,4.50
2022-09-16T22:54:39.531Z,4.60
2022-09-16T22:57:02.025Z,4.60
2022-09-16T22:59:25.195Z,4.47
2022-09-16T23:01:48.153Z,4.30
2022-09-16T23:04:10.744Z,4.38
2022-09-16T23:06:34.150Z,4.20
2022-09-16T23:08:57.830Z,4.40
2022-09-16T23:11:24.272Z,4.00
2022-09-16T23:13:50.294Z,4.40
2022-09-16T23:16:16.377Z,4.18
2022-09-16T23:18:38.863Z,4.38
2022-09-16T23:21:22.408Z,4.03
2022-09-16T23:23:51.789Z,4.15
2022-09-16T23:26:16.923Z,4.30
2022-09-16T23:28:39.512Z,4.10
2022-09-16T23:31:05.969Z,4.40
2022-09-16T23:33:28.879Z,4.03
2022-09-16T23:35:51.461Z,4.30
2022-09-16T23:38:14.152Z,4.25
2022-09-16T23:40:37.812Z,4.15
2022-09-16T23:43:01.184Z,4.18
2022-09-16T23:45:23.692Z,4.00
2022-09-16T23:47:46.852Z,3.88
2022-09-16T23:50:11.367Z,4.22
2022-09-16T23:52:34.394Z,4.53
2022-09-16T23:54:56.852Z,4.22
2022-09-16T23:57:19.452Z,4.60
2022-09-16T23:59:42.103Z,4.38
